createdAt,value
2018-06-03T00:00:54.019Z,5.78
2018-06-03T00:03:22.862Z,6.30
2018-06-03T00:05:51.719Z,6.47
2018-06-03T00:08:20.579Z,5.60
2018-06-03T00:10:49.406Z,6.37
2018-06-03T00:13:18.279Z,6.60
2018-06-03T00:15:47.147Z,6.20
2018-06-03T00:18:15.978Z,7.00
2018-06-03T00:20:50.720Z,6.20
2018-06-03T00:23:19.587Z,5.25
2018-06-03T00:25:48.416Z,5.32
2018-06-03T00:28:17.238Z,5.57
2018-06-03T00:30:46.085Z,5.20
2018-06-03T00:33:14.914Z,6.03
2018-06-03T00:35:49.684Z,6.43
2018-06-03T00:38:18.535Z,5.70
2018-06-03T00:40:47.359Z,5.23
2018-06-03T00:43:16.202Z,5.68
2018-06-03T00:45:45.061Z,6.20
2018-06-03T00:48:13.916Z,5.72
2018-06-03T00:50:42.778Z,5.70
2018-06-03T00:53:11.605Z,6.60
2018-06-03T00:55:40.465Z,5.53
2018-06-03T00:58:09.310Z,6.22
2018-06-03T01:00:38.145Z,6.62
2018-06-03T01:03:07.008Z,6.60
2018-06-03T01:05:35.863Z,6.10
2018-06-03T01:08:04.696Z,6.40
2018-06-03T01:10:33.556Z,7.00
2018-06-03T01:13:02.399Z,6.35
2018-06-03T01:15:31.239Z,6.18
2018-06-03T01:18:00.068Z,6.40
2018-06-03T01:20:28.930Z,6.75
2018-06-03T01:22:57.774Z,6.70
2018-06-03T01:25:26.646Z,6.03
2018-06-03T01:27:55.503Z,6.50
2018-06-03T01:30:24.335Z,5.90
2018-06-03T01:32:53.188Z,6.05
2018-06-03T01:35:22.067Z,6.20
2018-06-03T01:37:50.907Z,6.22
2018-06-03T01:40:19.746Z,6.63
2018-06-03T01:42:48.571Z,5.68
2018-06-03T01:45:17.408Z,6.00
2018-06-03T01:47:46.248Z,5.80
2018-06-03T01:50:15.067Z,6.67
2018-06-03T01:52:43.936Z,5.85
2018-06-03T01:55:12.783Z,6.50
2018-06-03T01:57:41.611Z,6.18
2018-06-03T02:00:10.441Z,6.40
2018-06-03T02:02:39.311Z,6.03
2018-06-03T02:05:08.130Z,6.07
2018-06-03T02:07:36.980Z,6.35
2018-06-03T02:10:05.837Z,6.43
2018-06-03T02:12:34.662Z,6.82
2018-06-03T02:15:03.498Z,6.80
2018-06-03T02:17:32.327Z,6.32
2018-06-03T02:20:01.170Z,7.30
2018-06-03T02:22:30.015Z,6.82
2018-06-03T02:24:58.839Z,7.10
2018-06-03T02:27:27.693Z,6.07
2018-06-03T02:29:56.586Z,7.10
2018-06-03T02:32:25.412Z,6.97
2018-06-03T02:34:54.262Z,7.20
2018-06-03T02:37:23.114Z,7.35
2018-06-03T02:39:51.940Z,7.50
2018-06-03T02:42:20.792Z,6.55
2018-06-03T02:44:49.664Z,6.82
2018-06-03T02:47:18.503Z,7.57
2018-06-03T02:49:47.392Z,7.15
2018-06-03T02:52:16.239Z,6.95
2018-06-03T02:54:45.080Z,7.70
2018-06-03T02:57:13.919Z,8.02
2018-06-03T02:59:42.743Z,7.55
2018-06-03T03:02:11.639Z,6.82
2018-06-03T03:04:40.492Z,7.70
2018-06-03T03:07:09.335Z,8.20
2018-06-03T03:09:38.185Z,8.35
2018-06-03T03:12:07.036Z,7.83
2018-06-03T03:14:35.892Z,8.02
2018-06-03T03:17:04.723Z,7.80
2018-06-03T03:19:33.555Z,7.97
2018-06-03T03:22:02.433Z,8.10
2018-06-03T03:24:31.258Z,8.30
2018-06-03T03:27:00.215Z,8.30
2018-06-03T03:29:29.051Z,8.35
2018-06-03T03:31:57.907Z,7.97
2018-06-03T03:34:26.779Z,8.10
2018-06-03T03:36:55.607Z,8.80
2018-06-03T03:39:24.847Z,7.93
2018-06-03T03:41:53.675Z,8.27
2018-06-03T03:44:22.522Z,8.82
2018-06-03T03:46:51.392Z,8.30
2018-06-03T03:49:20.222Z,8.50
2018-06-03T03:51:49.063Z,9.20
2018-06-03T03:54:17.919Z,8.75
2018-06-03T03:56:46.778Z,8.47
2018-06-03T03:59:15.615Z,9.50
2018-06-03T04:01:44.454Z,8.70
2018-06-03T04:04:13.368Z,8.80
2018-06-03T04:06:42.235Z,9.23
2018-06-03T04:09:11.067Z,9.10
2018-06-03T04:11:39.899Z,9.23
2018-06-03T04:14:08.754Z,9.55
2018-06-03T04:16:37.592Z,9.38
2018-06-03T04:19:06.431Z,9.20
2018-06-03T04:21:35.282Z,8.52
2018-06-03T04:24:04.154Z,9.60
2018-06-03T04:26:33.076Z,9.55
2018-06-03T04:29:01.927Z,9.40
2018-06-03T04:31:30.795Z,8.80
2018-06-03T04:33:59.639Z,9.50
2018-06-03T04:36:28.498Z,9.00
2018-06-03T04:38:57.327Z,8.10
2018-06-03T04:41:26.175Z,9.88
2018-06-03T04:43:55.104Z,8.68
2018-06-03T04:46:23.959Z,8.75
2018-06-03T04:48:52.824Z,9.38
2018-06-03T04:51:21.659Z,9.90
2018-06-03T04:53:50.507Z,8.38
2018-06-03T04:56:19.367Z,11.53
2018-06-03T04:58:48.203Z,10.70
2018-06-03T05:01:17.068Z,10.60
2018-06-03T05:03:45.922Z,10.98
2018-06-03T05:06:14.787Z,11.40
2018-06-03T05:08:43.623Z,10.60
2018-06-03T05:11:12.474Z,11.32
2018-06-03T05:13:41.342Z,11.30
2018-06-03T05:16:10.174Z,9.60
2018-06-03T05:18:39.035Z,10.57
2018-06-03T05:21:07.882Z,10.52
2018-06-03T05:23:36.739Z,9.80
2018-06-03T05:26:05.581Z,11.30
2018-06-03T05:28:34.467Z,11.98
2018-06-03T05:31:03.295Z,12.10
2018-06-03T05:33:32.130Z,12.00
2018-06-03T05:36:00.985Z,12.20
2018-06-03T05:38:29.886Z,12.67
2018-06-03T05:40:58.722Z,12.15
2018-06-03T05:43:27.556Z,13.17
2018-06-03T05:45:56.433Z,12.70
2018-06-03T05:48:25.310Z,15.30
2018-06-03T05:50:54.138Z,14.65
2018-06-03T05:53:22.971Z,15.50
2018-06-03T05:55:51.881Z,16.12
2018-06-03T05:58:20.687Z,16.85
2018-06-03T06:00:49.531Z,16.30
2018-06-03T06:03:18.378Z,17.90
2018-06-03T06:05:47.234Z,18.20
2018-06-03T06:08:16.057Z,18.17
2018-06-03T06:10:44.918Z,19.35
2018-06-03T06:13:13.754Z,26.15
2018-06-03T06:15:42.587Z,18.70
2018-06-03T06:18:11.442Z,18.33
2018-06-03T06:20:40.298Z,16.60
2018-06-03T06:23:09.136Z,16.87
2018-06-03T06:25:38.004Z,15.05
2018-06-03T06:28:06.831Z,15.95
2018-06-03T06:30:35.699Z,15.30
2018-06-03T06:33:04.555Z,15.75
2018-06-03T06:35:33.414Z,14.35
2018-06-03T06:38:02.283Z,14.15
2018-06-03T06:40:31.130Z,16.35
2018-06-03T06:43:00.002Z,16.27
2018-06-03T06:45:28.875Z,13.82
2018-06-03T06:47:57.718Z,14.35
2018-06-03T06:50:26.597Z,16.12
2018-06-03T06:52:55.443Z,16.75
2018-06-03T06:55:24.331Z,17.25
2018-06-03T06:57:53.164Z,16.92
2018-06-03T07:00:22.021Z,13.62
2018-06-03T07:02:50.867Z,15.38
2018-06-03T07:05:19.733Z,17.60
2018-06-03T07:07:48.568Z,17.30
2018-06-03T07:10:17.439Z,14.82
2018-06-03T07:12:46.279Z,18.60
2018-06-03T07:15:15.140Z,17.15
2018-06-03T07:17:43.997Z,17.02
2018-06-03T07:20:12.868Z,15.85
2018-06-03T07:22:41.711Z,16.70
2018-06-03T07:25:10.639Z,18.00
2018-06-03T07:27:39.495Z,17.35
2018-06-03T07:30:08.367Z,15.15
2018-06-03T07:32:37.205Z,14.30
2018-06-03T07:35:06.071Z,16.83
2018-06-03T07:37:34.907Z,19.65
2018-06-03T07:40:03.794Z,15.43
2018-06-03T07:42:32.647Z,16.80
2018-06-03T07:45:01.492Z,16.42
2018-06-03T07:47:30.351Z,16.70
2018-06-03T07:49:59.194Z,16.37
2018-06-03T07:52:28.051Z,17.83
2018-06-03T07:54:56.952Z,16.08
2018-06-03T07:57:25.785Z,18.83
2018-06-03T07:59:54.654Z,17.12
2018-06-03T08:02:23.605Z,16.02
2018-06-03T08:04:52.485Z,14.90
2018-06-03T08:07:21.746Z,18.42
2018-06-03T08:09:50.183Z,16.42
2018-06-03T08:12:19.040Z,18.73
2018-06-03T08:14:47.871Z,17.05
2018-06-03T08:17:16.740Z,19.50
2018-06-03T08:19:45.568Z,19.30
2018-06-03T08:22:14.464Z,20.05
2018-06-03T08:24:43.295Z,21.03
2018-06-03T08:27:12.151Z,20.50
2018-06-03T08:29:40.998Z,16.23
2018-06-03T08:32:09.852Z,21.17
2018-06-03T08:34:38.726Z,18.73
2018-06-03T08:37:07.555Z,21.50
2018-06-03T08:39:36.415Z,22.02
2018-06-03T09:19:11.661Z,18.57
2018-06-03T09:21:40.483Z,15.30
2018-06-03T09:29:06.127Z,23.80
2018-06-03T09:31:34.986Z,19.10
2018-06-03T09:34:03.865Z,19.47
2018-06-03T09:36:32.694Z,20.73
2018-06-03T09:39:01.533Z,19.48
2018-06-03T09:41:30.393Z,18.62
2018-06-03T09:43:59.223Z,29.30
2018-06-03T09:46:28.075Z,21.05
2018-06-03T09:48:56.927Z,18.58
2018-06-03T09:51:25.776Z,20.50
2018-06-03T09:53:54.622Z,21.00
2018-06-03T09:56:23.483Z,19.62
2018-06-03T09:58:52.327Z,19.23
2018-06-03T10:01:21.187Z,19.40
2018-06-03T10:03:50.043Z,20.40
2018-06-03T10:06:18.919Z,20.45
2018-06-03T10:08:47.824Z,19.13
2018-06-03T10:11:16.839Z,22.60
2018-06-03T10:13:45.736Z,22.95
2018-06-03T10:16:14.585Z,22.52
2018-06-03T10:18:43.438Z,20.80
2018-06-03T10:21:12.367Z,22.40
2018-06-03T10:23:41.281Z,23.23
2018-06-03T10:26:10.216Z,20.30
2018-06-03T10:28:39.083Z,20.80
2018-06-03T10:31:07.919Z,22.15
2018-06-03T10:33:36.782Z,21.80
2018-06-03T10:36:05.648Z,21.33
2018-06-03T10:38:34.482Z,21.35
2018-06-03T10:41:03.358Z,19.00
2018-06-03T10:43:32.215Z,20.10
2018-06-03T10:46:01.043Z,20.52
2018-06-03T10:48:29.907Z,19.30
2018-06-03T10:50:58.780Z,20.37
2018-06-03T10:53:27.611Z,19.48
2018-06-03T10:55:56.447Z,19.50
2018-06-03T10:58:25.316Z,22.75
2018-06-03T11:00:54.155Z,22.30
2018-06-03T11:03:22.994Z,19.97
2018-06-03T11:05:51.850Z,18.90
2018-06-03T11:08:20.706Z,18.45
2018-06-03T11:10:49.556Z,17.70
2018-06-03T11:13:18.421Z,16.12
2018-06-03T11:15:47.307Z,16.90
2018-06-03T11:18:16.200Z,15.70
2018-06-03T11:20:45.060Z,15.82
2018-06-03T11:23:13.910Z,14.90
2018-06-03T11:25:42.743Z,16.17
2018-06-03T11:28:11.624Z,14.82
2018-06-03T11:30:40.477Z,15.70
2018-06-03T11:33:09.345Z,15.77
2018-06-03T11:35:38.227Z,16.70
2018-06-03T11:38:07.074Z,16.83
2018-06-03T11:40:35.939Z,13.82
2018-06-03T11:43:04.782Z,14.75
2018-06-03T11:45:33.648Z,14.40
2018-06-03T11:48:02.494Z,14.10
2018-06-03T11:50:31.331Z,14.10
2018-06-03T11:53:00.266Z,13.23
2018-06-03T11:55:29.129Z,13.10
2018-06-03T11:57:58.754Z,12.88
2018-06-03T12:00:27.587Z,12.75
2018-06-03T12:02:56.442Z,11.60
2018-06-03T12:05:25.293Z,13.43
2018-06-03T12:07:54.157Z,13.30
2018-06-03T12:10:23.035Z,11.90
2018-06-03T12:12:51.870Z,12.07
2018-06-03T12:15:20.707Z,12.10
2018-06-03T12:17:49.570Z,11.82
2018-06-03T12:20:18.450Z,12.02
2018-06-03T12:22:47.277Z,18.80
2018-06-03T12:25:16.136Z,12.05
2018-06-03T12:27:44.955Z,11.67
2018-06-03T12:30:13.876Z,11.50
2018-06-03T12:32:42.738Z,10.32
2018-06-03T12:35:11.611Z,11.02
2018-06-03T12:37:40.446Z,10.43
2018-06-03T12:40:09.325Z,10.77
2018-06-03T12:42:38.159Z,9.75
2018-06-03T12:45:07.026Z,10.10
2018-06-03T12:47:35.864Z,10.65
2018-06-03T12:50:04.738Z,9.93
2018-06-03T12:52:33.611Z,8.53
2018-06-03T12:55:02.503Z,9.32
2018-06-03T12:57:31.334Z,9.23
2018-06-03T13:00:00.236Z,8.90
2018-06-03T13:02:29.067Z,9.07
2018-06-03T13:04:57.922Z,9.27
2018-06-03T13:07:26.775Z,9.30
2018-06-03T13:09:55.622Z,9.15
2018-06-03T13:12:24.495Z,9.10
2018-06-03T13:14:53.663Z,9.45
2018-06-03T13:17:22.560Z,9.52
2018-06-03T13:19:51.359Z,9.50
2018-06-03T13:22:20.210Z,9.30
2018-06-03T13:24:49.036Z,9.60
2018-06-03T13:27:17.891Z,8.40
2018-06-03T13:29:46.739Z,8.93
2018-06-03T13:32:15.585Z,8.85
2018-06-03T13:34:44.480Z,9.40
2018-06-03T13:37:13.328Z,8.65
2018-06-03T13:39:42.155Z,8.73
2018-06-03T13:42:11.007Z,7.70
2018-06-03T13:44:45.754Z,8.50
2018-06-03T13:47:14.591Z,7.90
2018-06-03T13:49:43.446Z,8.10
2018-06-03T13:52:12.298Z,8.93
2018-06-03T13:54:41.138Z,8.27
2018-06-03T13:57:10.003Z,8.73
2018-06-03T13:59:38.835Z,8.10
2018-06-03T14:02:07.685Z,8.20
2018-06-03T17:32:03.775Z,7.58
2018-06-03T21:50:17.926Z,9.20
2018-06-03T21:52:46.375Z,26.57
2018-06-03T21:55:14.790Z,5.53
2018-06-03T21:57:43.332Z,14.60
2018-06-03T22:00:11.767Z,7.45
2018-06-03T22:02:40.154Z,5.40
2018-06-03T22:05:08.678Z,7.05
2018-06-03T22:07:37.046Z,6.20
2018-06-03T22:10:05.540Z,6.08
2018-06-03T22:12:34.110Z,6.62
2018-06-03T22:15:02.609Z,7.35
2018-06-03T22:17:31.067Z,6.12
2018-06-03T22:19:59.691Z,5.80
2018-06-03T22:22:28.152Z,7.07
2018-06-03T22:24:56.646Z,5.47
2018-06-03T22:27:25.333Z,4.67
2018-06-03T22:29:53.808Z,5.87
2018-06-03T22:32:22.246Z,5.10
2018-06-03T22:34:50.650Z,5.50
2018-06-03T22:37:19.347Z,5.60
2018-06-03T22:39:47.817Z,5.25
2018-06-03T22:42:16.295Z,4.70
2018-06-03T22:44:44.817Z,5.60
2018-06-03T22:47:13.350Z,4.60
2018-06-03T22:49:41.887Z,5.08
2018-06-03T22:52:10.335Z,4.60
2018-06-03T22:54:38.798Z,5.42
2018-06-03T22:57:14.251Z,4.65
2018-06-03T22:59:42.641Z,5.30
2018-06-03T23:02:11.098Z,5.30
2018-06-03T23:04:39.716Z,5.25
2018-06-03T23:07:08.288Z,4.70
2018-06-03T23:09:36.678Z,5.03
2018-06-03T23:12:05.099Z,5.20
2018-06-03T23:14:33.634Z,5.20
2018-06-03T23:17:02.166Z,4.80
2018-06-03T23:19:30.610Z,5.03
2018-06-03T23:21:59.151Z,5.47
2018-06-03T23:24:27.626Z,5.42
2018-06-03T23:26:56.134Z,5.37
2018-06-03T23:29:24.729Z,4.70
2018-06-03T23:31:53.175Z,4.63
2018-06-03T23:34:21.670Z,4.87
2018-06-03T23:36:50.203Z,5.45
2018-06-03T23:39:18.742Z,5.35
2018-06-03T23:41:47.202Z,4.90
2018-06-03T23:44:15.715Z,5.25
2018-06-03T23:46:44.172Z,5.30
2018-06-03T23:49:12.742Z,4.70
2018-06-03T23:51:41.123Z,5.30
2018-06-03T23:54:09.539Z,5.40
2018-06-03T23:56:37.991Z,5.67
2018-06-03T23:59:06.423Z,4.70
